TimeCDT,TemperatureF,Dew PointF,Humidity,Sea Level PressureIn,VisibilityMPH,Wind Direction,Wind SpeedMPH,Gust SpeedMPH,PrecipitationIn,Events,Conditions,WindDirDegrees,DateUTC
12:08 AM,78.1,58.1,50,-9999,-9999.0,SSE,20.7,-,N/A,,Unknown,160,2013-06-22 05:08:00
12:28 AM,78.1,57.0,48,-9999,-9999.0,South,20.7,-,N/A,,Unknown,170,2013-06-22 05:28:00
12:48 AM,77.0,57.0,50,-9999,-9999.0,South,21.9,-,N/A,,Unknown,170,2013-06-22 05:48:00
1:08 AM,75.9,57.0,52,-9999,-9999.0,South,18.4,-,N/A,,Unknown,170,2013-06-22 06:08:00
1:28 AM,75.0,56.1,52,-9999,-9999.0,South,17.3,-,N/A,,Unknown,170,2013-06-22 06:28:00
1:48 AM,73.9,57.0,55,-9999,-9999.0,South,13.8,-,N/A,,Unknown,170,2013-06-22 06:48:00
2:08 AM,73.9,55.0,52,-9999,-9999.0,South,18.4,-,N/A,,Unknown,180,2013-06-22 07:08:00
2:28 AM,-9999,-9999,N/A,-9999,-9999.0,North,-9999.0,-,N/A,,Unknown,0,2013-06-22 07:28:00
2:48 AM,73.9,55.0,52,-9999,-9999.0,South,12.7,-,N/A,,Unknown,180,2013-06-22 07:48:00
3:08 AM,73.0,55.0,53,-9999,-9999.0,South,9.2,-,N/A,,Unknown,190,2013-06-22 08:08:00
3:28 AM,72.0,55.0,55,-9999,-9999.0,South,6.9,-,N/A,,Unknown,180,2013-06-22 08:28:00
3:48 AM,71.1,54.1,55,-9999,-9999.0,South,9.2,-,N/A,,Unknown,180,2013-06-22 08:48:00
4:08 AM,70.0,53.1,55,-9999,-9999.0,South,10.4,-,N/A,,Unknown,180,2013-06-22 09:08:00
4:28 AM,70.0,54.1,57,-9999,-9999.0,South,8.1,-,N/A,,Unknown,180,2013-06-22 09:28:00
4:48 AM,69.1,55.0,61,-9999,-9999.0,South,4.6,-,N/A,,Unknown,190,2013-06-22 09:48:00
5:08 AM,68.0,53.1,59,-9999,-9999.0,South,11.5,-,N/A,,Unknown,180,2013-06-22 10:08:00
5:28 AM,68.0,53.1,59,-9999,-9999.0,South,11.5,-,N/A,,Unknown,180,2013-06-22 10:28:00
5:48 AM,68.0,53.1,59,-9999,-9999.0,South,10.4,-,N/A,,Unknown,190,2013-06-22 10:48:00
6:08 AM,68.0,54.1,61,-9999,-9999.0,South,10.4,-,N/A,,Unknown,180,2013-06-22 11:08:00
6:28 AM,66.9,55.0,66,-9999,-9999.0,South,9.2,-,N/A,,Unknown,180,2013-06-22 11:28:00
6:48 AM,66.0,55.0,68,-9999,-9999.0,South,9.2,-,N/A,,Unknown,180,2013-06-22 11:48:00
7:08 AM,-9999,-9999,N/A,-9999,-9999.0,North,-9999.0,-,N/A,,Unknown,0,2013-06-22 12:08:00
7:28 AM,66.9,55.0,66,-9999,-9999.0,South,12.7,-,N/A,,Unknown,170,2013-06-22 12:28:00
7:48 AM,69.1,56.1,63,-9999,-9999.0,South,12.7,-,N/A,,Unknown,170,2013-06-22 12:48:00
8:08 AM,71.1,56.1,59,-9999,-9999.0,South,15.0,-,N/A,,Unknown,170,2013-06-22 13:08:00
8:28 AM,73.9,57.0,55,-9999,-9999.0,South,13.8,-,N/A,,Unknown,170,2013-06-22 13:28:00
8:48 AM,75.9,56.1,50,-9999,-9999.0,South,16.1,-,N/A,,Unknown,170,2013-06-22 13:48:00
9:08 AM,75.9,56.1,50,-9999,-9999.0,South,15.0,-,N/A,,Unknown,180,2013-06-22 14:08:00
9:28 AM,78.1,57.0,48,-9999,-9999.0,South,16.1,-,N/A,,Unknown,190,2013-06-22 14:28:00
9:48 AM,80.1,57.0,45,-9999,-9999.0,South,16.1,-,N/A,,Unknown,180,2013-06-22 14:48:00
10:08 AM,81.0,57.0,44,-9999,-9999.0,South,17.3,-,N/A,,Unknown,180,2013-06-22 15:08:00
10:28 AM,82.9,58.1,43,-9999,-9999.0,South,12.7,-,N/A,,Unknown,180,2013-06-22 15:28:00
10:48 AM,84.9,58.1,40,-9999,-9999.0,SSW,12.7,-,N/A,,Unknown,200,2013-06-22 15:48:00
11:08 AM,86.0,58.1,39,-9999,-9999.0,South,15.0,-,N/A,,Unknown,190,2013-06-22 16:08:00
11:28 AM,87.1,57.0,36,-9999,-9999.0,South,11.5,-,N/A,,Unknown,190,2013-06-22 16:28:00
11:48 AM,88.0,58.1,36,-9999,-9999.0,SSW,12.7,-,N/A,,Unknown,200,2013-06-22 16:48:00
12:08 PM,89.1,59.2,36,-9999,-9999.0,SSW,11.5,-,N/A,,Unknown,200,2013-06-22 17:08:00
12:28 PM,91.0,59.2,34,-9999,-9999.0,South,13.8,-,N/A,,Unknown,180,2013-06-22 17:28:00
12:48 PM,93.0,58.1,31,-9999,-9999.0,South,13.8,-,N/A,,Unknown,180,2013-06-22 17:48:00
1:08 PM,93.9,57.0,29,-9999,-9999.0,South,11.5,-,N/A,,Unknown,180,2013-06-22 18:08:00
1:28 PM,93.0,56.1,29,-9999,-9999.0,South,11.5,-,N/A,,Unknown,180,2013-06-22 18:28:00
1:48 PM,93.9,56.1,28,-9999,-9999.0,South,15.0,-,N/A,,Unknown,170,2013-06-22 18:48:00
2:08 PM,97.0,55.0,24,-9999,-9999.0,SSE,18.4,-,N/A,,Unknown,160,2013-06-22 19:08:00
2:28 PM,96.1,55.0,25,-9999,-9999.0,South,15.0,-,N/A,,Unknown,180,2013-06-22 19:28:00
2:48 PM,97.0,54.1,24,-9999,-9999.0,South,19.6,-,N/A,,Unknown,170,2013-06-22 19:48:00
3:08 PM,98.1,52.2,21,-9999,-9999.0,South,21.9,-,N/A,,Unknown,180,2013-06-22 20:08:00
3:28 PM,99.0,51.1,20,-9999,-9999.0,South,20.7,-,N/A,,Unknown,190,2013-06-22 20:28:00
3:48 PM,98.1,50.2,20,-9999,-9999.0,South,20.7,-,N/A,,Unknown,180,2013-06-22 20:48:00
4:08 PM,99.0,45.1,16,-9999,-9999.0,SSW,18.4,-,N/A,,Unknown,210,2013-06-22 21:08:00
4:28 PM,99.0,44.1,15,-9999,-9999.0,SSW,13.8,-,N/A,,Unknown,200,2013-06-22 21:28:00
4:48 PM,98.1,45.1,16,-9999,-9999.0,South,18.4,-,N/A,,Unknown,180,2013-06-22 21:48:00
5:08 PM,100.0,41.2,13,-9999,-9999.0,South,17.3,-,N/A,,Unknown,180,2013-06-22 22:08:00
5:28 PM,99.0,44.1,15,-9999,-9999.0,South,20.7,-,N/A,,Unknown,170,2013-06-22 22:28:00
5:48 PM,99.0,43.2,15,-9999,-9999.0,South,20.7,-,N/A,,Unknown,170,2013-06-22 22:48:00
6:08 PM,99.0,36.1,11,-9999,-9999.0,South,21.9,-,N/A,,Unknown,190,2013-06-22 23:08:00
6:28 PM,98.1,34.2,11,-9999,-9999.0,South,16.1,-,N/A,,Unknown,190,2013-06-22 23:28:00
6:48 PM,97.0,33.1,11,-9999,-9999.0,SSW,16.1,-,N/A,,Unknown,200,2013-06-22 23:48:00
7:08 PM,96.1,32.2,11,-9999,-9999.0,South,10.4,-,N/A,,Unknown,190,2013-06-23 00:08:00
7:28 PM,96.1,31.1,10,-9999,-9999.0,SSW,16.1,-,N/A,,Unknown,200,2013-06-23 00:28:00
7:48 PM,95.0,31.1,10,-9999,-9999.0,SSW,12.7,-,N/A,,Unknown,210,2013-06-23 00:48:00
8:08 PM,93.9,30.0,10,-9999,-9999.0,SSW,10.4,-,N/A,,Unknown,210,2013-06-23 01:08:00
8:28 PM,93.0,30.0,11,-9999,-9999.0,South,9.2,-,N/A,,Unknown,180,2013-06-23 01:28:00
8:48 PM,88.0,42.1,20,-9999,-9999.0,South,17.3,-,N/A,,Unknown,170,2013-06-23 01:48:00
9:08 PM,86.0,61.2,43,-9999,-9999.0,SSE,23.0,-,N/A,,Unknown,160,2013-06-23 02:08:00
9:28 PM,84.0,60.1,44,-9999,-9999.0,SSE,26.5,-,N/A,,Unknown,160,2013-06-23 02:28:00
9:48 PM,82.9,60.1,46,-9999,-9999.0,SSE,21.9,-,N/A,,Unknown,150,2013-06-23 02:48:00
10:08 PM,82.0,60.1,47,-9999,-9999.0,SSE,21.9,-,N/A,,Unknown,160,2013-06-23 03:08:00
10:28 PM,-9999,-9999,N/A,-9999,-9999.0,North,-9999.0,-,N/A,,Unknown,0,2013-06-23 03:28:00
10:48 PM,81.0,59.2,47,-9999,-9999.0,SSE,23.0,-,N/A,,Unknown,160,2013-06-23 03:48:00
11:08 PM,81.0,59.2,47,-9999,-9999.0,SSE,24.2,-,N/A,,Unknown,160,2013-06-23 04:08:00
11:28 PM,81.0,59.2,47,-9999,-9999.0,SSE,23.0,-,N/A,,Unknown,160,2013-06-23 04:28:00
11:48 PM,81.0,59.2,47,-9999,-9999.0,SSE,21.9,-,N/A,,Unknown,160,2013-06-23 04:48:00